Time;durP1;ratioP1;P1;durP2;ratioP2;P2;SDS_P1;SDS_P2;PMS_P1;PMS_P2;Temp;Humidity;BMP_temperature;BMP_pressure;BME280_temperature;BME280_humidity;BME280_pressure;Samples;Min_cycle;Max_cycle;Signal;HPM_P1;HPM_P2
2022/08/30 00:01:05;;;;;;;4.40;2.78;;;17.60;99.90;;;;;;5061247;28;20032;-80
2022/08/30 00:03:39;;;;;;;6.70;3.40;;;17.60;99.90;;;;;;5054758;28;20060;-78
2022/08/30 00:06:06;;;;;;;4.35;3.10;;;17.60;99.90;;;;;;5054313;28;20032;-79
2022/08/30 00:08:33;;;;;;;5.85;3.35;;;17.60;99.90;;;;;;5070706;28;20047;-79
2022/08/30 00:10:59;;;;;;;6.32;2.92;;;17.50;99.90;;;;;;5050946;28;20025;-79
2022/08/30 00:13:25;;;;;;;6.75;3.28;;;17.60;99.90;;;;;;5053733;28;20055;-82
2022/08/30 00:15:50;;;;;;;4.57;3.28;;;17.60;99.90;;;;;;5071798;28;20508;-79
2022/08/30 00:18:17;;;;;;;4.63;2.75;;;17.60;99.90;;;;;;5070382;28;20040;-79
2022/08/30 00:20:45;;;;;;;4.25;2.85;;;17.60;99.90;;;;;;5066205;28;20089;-81
2022/08/30 00:23:11;;;;;;;3.83;2.55;;;17.60;99.90;;;;;;5069040;28;20058;-79
2022/08/30 00:25:37;;;;;;;4.63;2.80;;;17.50;99.90;;;;;;5056362;28;20060;-81
2022/08/30 00:28:02;;;;;;;5.25;3.03;;;17.60;99.90;;;;;;5060260;28;20044;-81
2022/08/30 00:30:29;;;;;;;6.07;3.30;;;17.60;99.90;;;;;;5059978;28;20150;-82
2022/08/30 00:32:54;;;;;;;5.53;3.13;;;17.60;99.90;;;;;;5053141;28;20029;-79
2022/08/30 00:35:21;;;;;;;7.43;3.45;;;17.50;99.90;;;;;;5058548;28;20082;-80
2022/08/30 00:37:47;;;;;;;6.55;2.80;;;17.50;99.90;;;;;;5068718;28;20043;-79
2022/08/30 00:40:14;;;;;;;8.77;3.92;;;17.50;99.90;;;;;;5072497;28;20416;-79
2022/08/30 00:42:41;;;;;;;4.57;3.53;;;17.40;99.90;;;;;;5066579;28;20077;-79
2022/08/30 00:45:23;;;;;;;4.90;3.33;;;17.40;99.90;;;;;;5071392;28;20488;-79
2022/08/30 00:47:48;;;;;;;5.88;3.58;;;17.40;99.90;;;;;;5072034;28;20036;-79
2022/08/30 00:50:19;;;;;;;4.78;2.80;;;17.30;99.90;;;;;;5071384;28;20354;-81
2022/08/30 00:52:47;;;;;;;6.57;3.40;;;17.20;99.90;;;;;;5072787;28;20036;-79
2022/08/30 00:55:15;;;;;;;4.95;3.15;;;17.20;99.90;;;;;;5071110;28;20025;-79
2022/08/30 00:57:43;;;;;;;8.73;3.63;;;17.10;99.90;;;;;;5072095;28;20051;-77
2022/08/30 01:00:11;;;;;;;6.63;3.20;;;17.10;99.90;;;;;;5070207;28;20128;-79
2022/08/30 01:02:36;;;;;;;6.03;3.63;;;17.10;99.90;;;;;;5069811;28;20426;-80
2022/08/30 01:05:07;;;;;;;6.30;3.75;;;17.00;99.90;;;;;;5071091;28;20032;-80
2022/08/30 01:07:33;;;;;;;7.85;4.13;;;17.00;99.90;;;;;;5071142;28;20027;-79
2022/08/30 01:09:59;;;;;;;7.80;3.55;;;17.00;99.90;;;;;;5061764;28;20023;-79
2022/08/30 01:12:25;;;;;;;7.10;4.20;;;17.00;99.90;;;;;;5065949;28;20032;-79
2022/08/30 01:14:51;;;;;;;5.53;4.20;;;17.00;99.90;;;;;;5069880;28;20028;-80
2022/08/30 01:17:17;;;;;;;5.10;3.72;;;17.00;99.90;;;;;;5070516;28;20055;-81
2022/08/30 01:19:51;;;;;;;5.78;3.80;;;17.00;99.90;;;;;;5070955;28;20056;-78
2022/08/30 01:22:24;;;;;;;6.10;4.50;;;17.00;99.90;;;;;;5068631;28;20036;-78
2022/08/30 01:24:52;;;;;;;7.07;3.65;;;17.00;99.90;;;;;;5068080;28;20374;-79
2022/08/30 01:27:18;;;;;;;5.32;3.55;;;17.00;99.90;;;;;;5080797;28;20480;-82
2022/08/30 01:29:44;;;;;;;6.80;4.38;;;17.00;99.90;;;;;;5063565;28;20024;-79
2022/08/30 01:32:25;;;;;;;5.97;4.20;;;17.10;99.90;;;;;;5069963;28;20044;-82
2022/08/30 01:34:50;;;;;;;6.25;3.60;;;17.10;99.90;;;;;;5062639;28;20029;-80
2022/08/30 01:37:27;;;;;;;5.88;3.83;;;17.00;99.90;;;;;;5080337;28;20487;-79
2022/08/30 01:39:53;;;;;;;5.55;3.58;;;17.10;99.90;;;;;;5063968;28;20024;-78
2022/08/30 01:42:19;;;;;;;4.88;3.95;;;17.00;99.90;;;;;;5098882;28;20080;-80
2022/08/30 01:44:45;;;;;;;4.32;3.30;;;17.00;99.90;;;;;;5088833;28;20421;-79
2022/08/30 01:47:11;;;;;;;4.78;3.63;;;17.00;99.90;;;;;;5070796;28;20031;-81
2022/08/30 01:49:37;;;;;;;7.53;4.03;;;17.00;99.90;;;;;;5074708;28;20032;-80
2022/08/30 01:52:04;;;;;;;6.28;4.18;;;17.10;99.90;;;;;;5073188;28;20016;-79
2022/08/30 01:54:31;;;;;;;7.15;4.03;;;17.00;99.90;;;;;;5069363;28;20028;-79
2022/08/30 01:56:56;;;;;;;5.55;3.70;;;17.00;99.90;;;;;;5069976;28;20024;-77
2022/08/30 01:59:21;;;;;;;7.80;3.65;;;17.00;99.90;;;;;;5066604;28;20051;-79
2022/08/30 02:01:47;;;;;;;6.45;4.40;;;17.00;99.90;;;;;;5070403;28;20085;-80
2022/08/30 02:04:13;;;;;;;4.10;3.70;;;17.00;99.90;;;;;;5068043;28;20389;-79
2022/08/30 02:06:39;;;;;;;7.72;3.95;;;16.90;99.90;;;;;;5080402;28;20028;-78
2022/08/30 02:09:04;;;;;;;5.97;3.53;;;17.00;99.90;;;;;;5063237;28;20464;-80
2022/08/30 02:11:30;;;;;;;7.40;3.42;;;16.90;99.90;;;;;;5049074;28;20531;-78
2022/08/30 02:13:55;;;;;;;10.45;4.18;;;16.90;99.90;;;;;;5064032;28;20025;-79
2022/08/30 02:16:22;;;;;;;7.55;3.83;;;16.90;99.90;;;;;;5069119;28;20492;-79
2022/08/30 02:18:49;;;;;;;7.78;4.30;;;16.80;99.90;;;;;;5066775;28;20059;-78
2022/08/30 02:21:15;;;;;;;7.20;4.72;;;16.90;99.90;;;;;;5063621;28;20043;-78
2022/08/30 02:23:41;;;;;;;7.10;4.28;;;16.90;99.90;;;;;;5066861;28;20033;-78
2022/08/30 02:26:07;;;;;;;7.20;4.20;;;16.90;99.90;;;;;;5067391;28;20059;-77
2022/08/30 02:28:32;;;;;;;11.13;3.90;;;16.90;99.90;;;;;;5069417;28;20070;-79
2022/08/30 02:30:58;;;;;;;4.50;4.05;;;16.90;99.90;;;;;;5069121;28;20033;-78
2022/08/30 02:33:24;;;;;;;8.10;4.10;;;16.80;99.90;;;;;;5073716;28;20043;-78
2022/08/30 02:35:49;;;;;;;7.20;4.10;;;16.80;99.90;;;;;;5066139;28;20397;-79
2022/08/30 02:38:14;;;;;;;7.65;5.30;;;16.80;99.90;;;;;;5068344;28;20497;-78
2022/08/30 02:40:40;;;;;;;5.30;4.07;;;16.70;99.90;;;;;;5066694;28;20048;-80
2022/08/30 02:43:06;;;;;;;4.22;3.35;;;16.70;99.90;;;;;;5066380;28;20562;-78
2022/08/30 02:45:31;;;;;;;4.80;3.88;;;16.70;99.90;;;;;;5068287;28;20050;-78
2022/08/30 02:47:57;;;;;;;5.57;4.05;;;16.60;99.90;;;;;;5068928;28;20024;-79
2022/08/30 02:50:23;;;;;;;6.95;3.95;;;16.60;99.90;;;;;;5071209;28;20035;-78
2022/08/30 02:52:49;;;;;;;7.53;4.03;;;16.60;99.90;;;;;;5066221;28;20617;-81
2022/08/30 02:55:15;;;;;;;5.50;3.90;;;16.50;99.90;;;;;;5067625;28;20037;-78
2022/08/30 02:57:40;;;;;;;9.15;4.78;;;16.50;99.90;;;;;;5075054;28;20028;-79
2022/08/30 03:00:12;;;;;;;6.43;4.45;;;16.50;99.90;;;;;;5065784;28;20035;-79
2022/08/30 03:02:39;;;;;;;6.35;4.45;;;16.40;99.90;;;;;;5066021;28;20017;-78
2022/08/30 03:05:06;;;;;;;7.13;4.50;;;16.40;99.90;;;;;;5062428;28;20037;-78
2022/08/30 03:07:31;;;;;;;6.13;4.50;;;16.30;99.90;;;;;;5068576;28;20032;-80
2022/08/30 03:09:57;;;;;;;5.68;4.63;;;16.30;99.90;;;;;;5067191;28;20031;-79
2022/08/30 03:12:23;;;;;;;13.27;6.03;;;16.30;99.90;;;;;;5066844;28;20032;-78
2022/08/30 03:14:49;;;;;;;6.85;4.65;;;16.30;99.90;;;;;;5070056;28;20132;-79
2022/08/30 03:17:15;;;;;;;9.88;6.30;;;16.30;99.90;;;;;;5066111;28;20112;-78
2022/08/30 03:19:43;;;;;;;8.82;5.68;;;16.30;99.90;;;;;;5069008;28;20026;-77
2022/08/30 03:22:09;;;;;;;9.35;5.28;;;16.30;99.90;;;;;;5068481;28;20029;-78
2022/08/30 03:24:35;;;;;;;7.10;4.97;;;16.30;99.90;;;;;;5068700;28;20198;-81
2022/08/30 03:27:00;;;;;;;6.78;4.75;;;16.30;99.90;;;;;;5071760;28;20039;-81
2022/08/30 03:29:26;;;;;;;6.68;4.70;;;16.30;99.90;;;;;;5072241;28;20383;-78
2022/08/30 03:31:51;;;;;;;7.90;4.75;;;16.30;99.90;;;;;;5067525;28;20021;-79
2022/08/30 03:34:17;;;;;;;7.22;4.60;;;16.30;99.90;;;;;;5072563;28;20441;-79
2022/08/30 03:36:43;;;;;;;4.88;4.10;;;16.30;99.90;;;;;;5068873;28;20023;-78
2022/08/30 03:39:10;;;;;;;5.55;4.18;;;16.30;99.90;;;;;;5072475;28;20020;-79
2022/08/30 03:41:35;;;;;;;8.15;4.85;;;16.30;99.90;;;;;;5069378;28;20032;-80
2022/08/30 03:44:01;;;;;;;8.40;5.15;;;16.30;99.90;;;;;;5073817;28;20039;-79
2022/08/30 03:46:27;;;;;;;6.68;4.90;;;16.30;99.90;;;;;;5074178;28;20033;-78
2022/08/30 03:48:54;;;;;;;6.68;4.25;;;16.20;99.90;;;;;;5070634;28;20025;-79
2022/08/30 03:51:21;;;;;;;13.02;4.85;;;16.20;99.90;;;;;;5069507;28;20015;-80
2022/08/30 03:53:46;;;;;;;6.75;4.93;;;16.20;99.90;;;;;;5069384;28;20436;-78
2022/08/30 03:56:12;;;;;;;7.05;4.53;;;16.20;99.90;;;;;;5071075;28;20024;-78
2022/08/30 03:58:39;;;;;;;9.43;4.53;;;16.20;99.90;;;;;;5067450;28;20012;-78
2022/08/30 04:01:05;;;;;;;8.77;4.75;;;16.10;99.90;;;;;;5062046;28;20033;-80
2022/08/30 04:03:30;;;;;;;8.02;5.05;;;16.10;99.90;;;;;;5053339;28;20048;-79
2022/08/30 04:05:56;;;;;;;6.28;4.95;;;16.10;99.90;;;;;;5071258;28;20060;-79
2022/08/30 04:08:22;;;;;;;6.40;5.00;;;16.10;99.90;;;;;;5054544;28;20488;-79
2022/08/30 04:10:47;;;;;;;10.50;5.30;;;16.00;99.90;;;;;;5058141;28;20226;-79
2022/08/30 04:13:14;;;;;;;8.73;5.90;;;16.00;99.90;;;;;;5048088;28;20122;-78
2022/08/30 04:15:40;;;;;;;9.23;4.57;;;16.00;99.90;;;;;;5061223;28;20040;-78
2022/08/30 04:18:05;;;;;;;8.20;4.72;;;16.00;99.90;;;;;;5072030;28;20477;-79
2022/08/30 04:20:30;;;;;;;10.48;5.45;;;16.00;99.90;;;;;;5066501;28;20021;-79
2022/08/30 04:22:56;;;;;;;7.50;5.03;;;15.90;99.90;;;;;;5057131;28;20036;-80
2022/08/30 04:25:22;;;;;;;8.98;4.75;;;15.90;99.90;;;;;;5051053;28;20025;-79
2022/08/30 04:27:48;;;;;;;5.57;4.40;;;15.90;99.90;;;;;;5051521;28;20025;-79
2022/08/30 04:30:15;;;;;;;5.50;4.68;;;15.90;99.90;;;;;;5051844;28;20054;-81
2022/08/30 04:32:41;;;;;;;8.95;4.53;;;15.90;99.90;;;;;;5068093;28;20092;-81
2022/08/30 04:35:08;;;;;;;7.95;4.95;;;15.80;99.90;;;;;;5053516;28;20036;-82
2022/08/30 04:37:34;;;;;;;5.78;4.68;;;15.90;99.90;;;;;;5053595;28;20361;-79
2022/08/30 04:39:59;;;;;;;8.43;5.25;;;15.80;99.90;;;;;;5047188;28;20044;-79
2022/08/30 04:42:30;;;;;;;7.15;5.07;;;15.80;99.90;;;;;;5052948;28;20058;-78
2022/08/30 04:44:56;;;;;;;6.20;4.53;;;15.80;99.90;;;;;;5057979;28;20024;-79
2022/08/30 04:47:22;;;;;;;7.65;6.03;;;15.80;99.90;;;;;;5070320;28;20078;-80
2022/08/30 04:49:47;;;;;;;13.00;5.60;;;15.80;99.90;;;;;;5068192;28;20453;-81
2022/08/30 04:52:13;;;;;;;7.30;5.30;;;15.80;99.90;;;;;;5074919;28;20032;-80
2022/08/30 04:54:39;;;;;;;8.63;5.32;;;15.80;99.90;;;;;;5055284;28;20067;-79
2022/08/30 04:57:05;;;;;;;6.35;4.85;;;15.80;99.90;;;;;;5064344;28;20032;-79
2022/08/30 04:59:32;;;;;;;10.35;5.35;;;15.90;99.90;;;;;;5070258;28;20028;-82
2022/08/30 05:01:57;;;;;;;8.45;5.00;;;15.90;99.90;;;;;;5064401;28;20059;-78
2022/08/30 05:04:23;;;;;;;11.13;5.63;;;15.90;99.90;;;;;;5065023;28;20113;-80
2022/08/30 05:06:49;;;;;;;8.05;5.45;;;15.90;99.90;;;;;;5055533;28;20028;-79
2022/08/30 05:09:14;;;;;;;9.27;5.75;;;15.90;99.90;;;;;;5058885;28;20029;-82
2022/08/30 05:11:42;;;;;;;6.20;5.07;;;16.00;99.90;;;;;;5069397;28;20123;-82
2022/08/30 05:14:08;;;;;;;10.95;5.63;;;16.00;99.90;;;;;;5096671;28;20035;-82
2022/08/30 05:16:33;;;;;;;9.32;4.57;;;16.00;99.90;;;;;;5089167;28;20009;-78
2022/08/30 05:18:59;;;;;;;7.05;5.25;;;16.00;99.90;;;;;;5069223;28;20080;-79
2022/08/30 05:21:26;;;;;;;9.82;5.80;;;16.00;99.90;;;;;;5089143;28;20033;-79
2022/08/30 05:23:58;;;;;;;6.75;5.03;;;16.00;99.90;;;;;;5066547;28;20173;-79
2022/08/30 05:26:27;;;;;;;8.57;5.28;;;16.00;99.90;;;;;;5067235;28;20033;-78
2022/08/30 05:28:53;;;;;;;7.13;5.13;;;16.00;99.90;;;;;;5068765;28;20042;-83
2022/08/30 05:31:23;;;;;;;6.43;4.82;;;16.00;99.90;;;;;;5068390;28;20021;-79
2022/08/30 05:33:50;;;;;;;8.50;5.45;;;16.10;99.90;;;;;;5070766;28;20047;-79
2022/08/30 05:36:17;;;;;;;6.70;5.25;;;16.10;99.90;;;;;;5068455;28;20077;-80
2022/08/30 05:38:43;;;;;;;7.65;4.68;;;16.10;99.90;;;;;;5064183;28;20465;-80
2022/08/30 05:41:10;;;;;;;8.02;4.93;;;16.10;99.90;;;;;;5062726;28;20039;-78
2022/08/30 05:43:36;;;;;;;10.30;6.47;;;16.20;99.90;;;;;;5070533;28;20020;-78
2022/08/30 05:46:05;;;;;;;7.07;5.13;;;16.20;99.90;;;;;;5064239;28;20036;-78
2022/08/30 05:48:31;;;;;;;10.65;6.07;;;16.30;99.90;;;;;;5069905;28;20020;-78
2022/08/30 05:51:16;;;;;;;8.00;5.53;;;16.30;99.90;;;;;;5067069;28;20078;-78
2022/08/30 05:53:42;;;;;;;7.63;5.78;;;16.40;99.90;;;;;;5057950;28;20025;-78
2022/08/30 05:56:11;;;;;;;8.32;5.45;;;16.40;99.90;;;;;;5065452;28;20035;-78
2022/08/30 05:58:37;;;;;;;7.30;5.78;;;16.40;99.90;;;;;;5067526;28;20047;-79
2022/08/30 06:01:03;;;;;;;10.77;6.55;;;16.40;99.90;;;;;;5067173;28;20464;-79
2022/08/30 06:03:31;;;;;;;7.70;5.80;;;16.50;99.90;;;;;;5067966;28;20032;-80
2022/08/30 06:05:56;;;;;;;6.90;5.35;;;16.50;99.90;;;;;;5063280;28;20020;-77
2022/08/30 06:08:22;;;;;;;8.52;5.43;;;16.60;99.90;;;;;;5063276;28;20031;-78
2022/08/30 06:10:47;;;;;;;9.68;5.20;;;16.70;99.90;;;;;;5068204;28;20032;-83
2022/08/30 06:13:13;;;;;;;8.63;6.22;;;16.80;99.90;;;;;;5064412;28;20031;-79
2022/08/30 06:15:39;;;;;;;11.32;5.45;;;16.80;99.90;;;;;;5056850;28;20021;-80
2022/08/30 06:18:05;;;;;;;10.52;5.13;;;16.90;99.90;;;;;;5068345;28;20046;-81
2022/08/30 06:20:31;;;;;;;6.75;5.03;;;17.00;99.90;;;;;;5061991;28;20020;-78
2022/08/30 06:22:56;;;;;;;8.27;6.13;;;17.00;99.90;;;;;;5060544;28;20074;-78
2022/08/30 06:25:22;;;;;;;12.55;5.35;;;17.10;99.90;;;;;;5057053;28;20095;-80
2022/08/30 06:27:47;;;;;;;9.80;5.82;;;17.10;99.90;;;;;;5070109;28;20082;-81
2022/08/30 06:30:13;;;;;;;7.88;5.13;;;17.20;99.90;;;;;;5063921;28;20035;-78
2022/08/30 06:32:39;;;;;;;10.05;5.68;;;17.30;99.90;;;;;;5058898;28;20029;-78
2022/08/30 06:35:06;;;;;;;8.43;5.95;;;17.30;99.90;;;;;;5062150;28;20651;-79
2022/08/30 06:37:32;;;;;;;12.95;6.80;;;17.40;99.90;;;;;;5065597;28;20127;-80
2022/08/30 06:40:01;;;;;;;9.30;6.82;;;17.40;99.90;;;;;;5057388;28;20031;-78
2022/08/30 06:42:30;;;;;;;8.20;6.15;;;17.50;99.90;;;;;;5064848;28;20488;-79
2022/08/30 06:44:56;;;;;;;10.85;7.53;;;17.50;99.90;;;;;;5067030;28;20031;-80
2022/08/30 06:47:22;;;;;;;8.48;6.13;;;17.70;99.90;;;;;;5066450;28;20028;-78
2022/08/30 06:49:47;;;;;;;8.60;6.07;;;17.70;99.90;;;;;;5057898;28;20132;-77
2022/08/30 06:52:13;;;;;;;10.15;6.55;;;17.70;99.90;;;;;;5055973;28;20041;-78
2022/08/30 06:54:38;;;;;;;14.70;7.32;;;17.80;99.90;;;;;;5051738;28;20031;-77
2022/08/30 06:57:04;;;;;;;9.10;6.65;;;17.80;99.90;;;;;;5067149;28;20503;-78
2022/08/30 06:59:31;;;;;;;9.02;6.40;;;17.90;99.90;;;;;;5066252;28;20029;-79
2022/08/30 07:01:56;;;;;;;14.98;6.30;;;18.00;99.90;;;;;;5067298;28;20108;-80
2022/08/30 07:04:22;;;;;;;11.88;6.80;;;18.20;99.90;;;;;;5068746;28;20115;-81
2022/08/30 07:06:48;;;;;;;12.27;6.65;;;18.30;99.90;;;;;;5061986;28;20409;-80
2022/08/30 07:09:13;;;;;;;9.23;7.03;;;18.30;99.90;;;;;;5067689;28;20033;-80
2022/08/30 07:11:39;;;;;;;10.00;7.50;;;18.40;99.90;;;;;;5069422;28;20021;-79
2022/08/30 07:14:05;;;;;;;12.32;7.13;;;18.50;99.90;;;;;;5074332;28;20024;-78
2022/08/30 07:16:32;;;;;;;14.30;6.88;;;18.60;99.90;;;;;;5066123;28;20020;-80
2022/08/30 07:18:59;;;;;;;11.52;7.57;;;18.70;99.90;;;;;;5061750;28;20029;-78
2022/08/30 07:21:37;;;;;;;9.18;6.50;;;18.80;99.90;;;;;;5065210;28;20071;-79
2022/08/30 07:24:04;;;;;;;8.85;6.70;;;19.00;99.90;;;;;;5067848;28;20032;-80
2022/08/30 07:26:36;;;;;;;10.43;7.38;;;19.20;99.90;;;;;;5067777;28;20090;-78
2022/08/30 07:29:02;;;;;;;9.20;6.75;;;19.40;99.90;;;;;;5064942;28;20103;-79
2022/08/30 07:31:29;;;;;;;9.52;6.07;;;19.50;99.90;;;;;;5069713;28;20111;-79
2022/08/30 07:33:54;;;;;;;13.70;6.57;;;19.60;99.90;;;;;;5067849;28;20112;-79
2022/08/30 07:36:20;;;;;;;9.88;6.57;;;19.80;99.90;;;;;;5076917;28;20111;-79
2022/08/30 07:38:47;;;;;;;6.13;5.25;;;19.80;99.90;;;;;;5071466;28;20070;-77
2022/08/30 07:41:39;;;;;;;14.18;6.78;;;19.90;99.90;;;;;;5072702;28;20024;-78
2022/08/30 07:44:08;;;;;;;10.77;6.40;;;20.00;99.90;;;;;;5067714;28;20040;-79
2022/08/30 07:46:34;;;;;;;11.98;7.03;;;20.10;99.90;;;;;;5065732;28;20059;-77
2022/08/30 07:49:00;;;;;;;15.55;6.85;;;20.20;99.90;;;;;;5068992;28;20056;-79
2022/08/30 07:51:27;;;;;;;9.45;6.60;;;20.30;99.90;;;;;;5063585;28;20119;-80
2022/08/30 07:53:54;;;;;;;11.65;6.25;;;20.40;99.90;;;;;;5072801;28;20025;-78
2022/08/30 07:56:21;;;;;;;8.13;5.75;;;20.60;99.90;;;;;;5066436;28;20029;-78
2022/08/30 07:58:47;;;;;;;7.30;5.63;;;20.70;99.90;;;;;;5067676;28;20035;-82
2022/08/30 08:01:13;;;;;;;8.48;5.95;;;20.90;99.90;;;;;;5066164;28;20055;-77
2022/08/30 08:03:41;;;;;;;7.85;5.90;;;21.00;99.50;;;;;;5063158;28;20016;-78
2022/08/30 08:06:09;;;;;;;9.95;5.18;;;21.10;99.10;;;;;;5070746;28;20035;-83
2022/08/30 08:08:36;;;;;;;8.23;5.30;;;21.20;98.70;;;;;;5066703;28;20510;-78
2022/08/30 08:11:23;;;;;;;7.40;5.40;;;21.10;98.80;;;;;;5059985;28;20460;-81
2022/08/30 08:13:50;;;;;;;6.72;5.43;;;21.10;98.70;;;;;;5067633;28;20031;-78
2022/08/30 08:16:16;;;;;;;6.80;4.85;;;21.20;98.90;;;;;;5066896;28;20032;-79
2022/08/30 08:18:41;;;;;;;7.40;5.20;;;21.10;98.70;;;;;;5077739;28;20123;-78
2022/08/30 08:21:06;;;;;;;10.30;5.97;;;21.20;98.60;;;;;;5071758;28;20033;-79
2022/08/30 08:23:32;;;;;;;7.70;5.53;;;21.20;98.60;;;;;;5075232;28;20036;-78
2022/08/30 08:25:58;;;;;;;12.77;5.28;;;21.30;98.60;;;;;;5072018;28;20631;-78
2022/08/30 08:28:24;;;;;;;9.52;4.75;;;21.50;98.10;;;;;;5076701;28;20032;-78
2022/08/30 08:30:49;;;;;;;5.43;4.65;;;21.60;97.70;;;;;;5075215;28;20559;-79
2022/08/30 08:33:17;;;;;;;8.32;5.38;;;21.70;97.30;;;;;;5074171;28;20138;-78
2022/08/30 08:35:42;;;;;;;5.47;4.28;;;21.60;97.40;;;;;;5069474;28;20592;-81
2022/08/30 08:38:08;;;;;;;7.20;5.18;;;21.70;97.20;;;;;;5071936;28;20029;-81
2022/08/30 08:40:56;;;;;;;10.13;4.43;;;21.90;97.20;;;;;;5072083;28;20039;-83
2022/08/30 08:43:25;;;;;;;7.35;4.43;;;22.10;97.50;;;;;;5095165;28;20028;-78
2022/08/30 08:46:04;;;;;;;9.10;4.47;;;22.30;96.90;;;;;;5092374;28;20031;-78
2022/08/30 08:48:45;;;;;;;6.18;3.80;;;22.40;96.70;;;;;;5084418;28;20059;-79
2022/08/30 08:54:13;;;;;;;6.38;3.00;;;22.30;94.80;;;;;;5079259;28;20035;-80
2022/08/30 08:56:38;;;;;;;6.65;3.95;;;22.30;95.20;;;;;;5070655;28;20031;-79
2022/08/30 08:59:07;;;;;;;4.78;3.05;;;22.40;95.80;;;;;;5072182;28;20037;-79
2022/08/30 09:01:34;;;;;;;6.68;3.03;;;22.40;95.70;;;;;;5069737;28;20029;-81
2022/08/30 09:04:10;;;;;;;4.63;2.80;;;22.50;95.40;;;;;;5069532;28;20032;-79
2022/08/30 09:06:59;;;;;;;7.03;3.38;;;22.70;94.90;;;;;;5064185;28;20097;-79
2022/08/30 09:09:37;;;;;;;5.55;2.78;;;22.80;95.10;;;;;;5069033;28;20035;-79
2022/08/30 09:12:04;;;;;;;3.20;1.98;;;23.00;94.90;;;;;;5068820;28;20372;-82
2022/08/30 09:14:37;;;;;;;1.73;1.38;;;23.20;94.30;;;;;;5069151;28;20534;-84
2022/08/30 09:17:06;;;;;;;;;;;23.40;93.00;;;;;;5069440;28;20052;-79
2022/08/30 09:19:36;;;;;;;5.13;1.98;;;23.50;91.60;;;;;;5068553;28;19908;-79
2022/08/30 09:22:21;;;;;;;3.38;2.00;;;23.70;93.00;;;;;;5068765;28;20016;-81
2022/08/30 09:24:51;;;;;;;7.32;1.67;;;23.80;91.90;;;;;;5068724;28;20048;-81
2022/08/30 09:27:27;;;;;;;3.05;1.88;;;23.90;92.20;;;;;;5066986;28;20125;-79
2022/08/30 09:30:00;;;;;;;4.22;2.05;;;24.00;92.20;;;;;;5076289;28;20380;-79
2022/08/30 09:32:34;;;;;;;3.65;2.35;;;24.20;92.00;;;;;;5080731;28;20067;-80
2022/08/30 09:34:59;;;;;;;4.88;2.10;;;24.20;91.70;;;;;;5071140;28;20059;-81
2022/08/30 09:37:38;;;;;;;6.82;2.00;;;24.30;91.50;;;;;;5067075;28;20178;-80
2022/08/30 09:40:13;;;;;;;5.10;2.10;;;24.30;91.70;;;;;;5067777;28;20021;-80
2022/08/30 09:42:38;;;;;;;5.90;2.70;;;24.30;91.40;;;;;;5068011;28;20038;-81
2022/08/30 09:45:09;;;;;;;3.72;2.17;;;24.30;91.70;;;;;;5068746;28;20457;-84
2022/08/30 09:47:38;;;;;;;3.90;2.20;;;24.30;91.70;;;;;;5068227;28;20028;-79
2022/08/30 09:50:09;;;;;;;3.92;1.95;;;24.40;91.50;;;;;;5069647;28;20119;-78
2022/08/30 09:52:38;;;;;;;3.42;1.83;;;24.50;91.30;;;;;;5067259;28;20033;-83
2022/08/30 09:55:20;;;;;;;4.90;2.03;;;24.50;91.30;;;;;;5068866;28;20036;-78
2022/08/30 09:58:25;;;;;;;5.20;1.75;;;24.50;91.30;;;;;;5053084;28;20075;-82
2022/08/30 10:01:13;;;;;;;3.80;1.77;;;24.40;91.50;;;;;;5066138;28;20025;-79
2022/08/30 10:04:02;;;;;;;7.22;1.95;;;24.40;91.50;;;;;;5068150;28;20012;-79
2022/08/30 10:06:44;;;;;;;4.53;2.15;;;24.40;91.40;;;;;;5063532;28;20028;-86
2022/08/30 10:09:21;;;;;;;4.93;2.40;;;24.60;92.10;;;;;;5056066;28;20032;-80
2022/08/30 10:12:15;;;;;;;3.92;2.50;;;24.80;91.70;;;;;;5068006;28;20039;-79
2022/08/30 10:14:54;;;;;;;3.60;2.30;;;24.70;90.80;;;;;;5052295;28;20013;-81
2022/08/30 10:18:09;;;;;;;6.47;2.40;;;24.70;92.40;;;;;;5067660;28;20098;-80
2022/08/30 10:20:42;;;;;;;3.78;2.30;;;24.50;91.40;;;;;;5027356;28;20026;-82
2022/08/30 10:23:24;;;;;;;3.63;2.05;;;24.30;91.50;;;;;;5032899;28;20044;-81
2022/08/30 10:25:55;;;;;;;;;;;24.50;91.60;;;;;;5051779;28;20049;-80
2022/08/30 10:28:30;;;;;;;3.38;2.50;;;24.60;92.20;;;;;;5063096;28;20008;-85
2022/08/30 10:31:01;;;;;;;6.68;2.78;;;24.70;92.10;;;;;;5063000;28;20101;-84
2022/08/30 10:33:34;;;;;;;7.90;2.75;;;24.80;91.80;;;;;;5061574;28;20224;-78
2022/08/30 10:36:04;;;;;;;8.73;3.08;;;25.00;91.10;;;;;;5066766;28;20032;-84
2022/08/30 10:38:33;;;;;;;9.30;2.88;;;25.10;91.80;;;;;;5057906;28;20081;-86
2022/08/30 10:41:11;;;;;;;6.00;2.50;;;25.10;90.60;;;;;;5059631;28;20032;-82
2022/08/30 10:43:46;;;;;;;6.88;2.95;;;25.10;91.00;;;;;;5068738;28;20055;-84
2022/08/30 10:46:37;;;;;;;4.47;2.47;;;25.20;90.80;;;;;;5065605;28;20388;-84
2022/08/30 10:49:07;;;;;;;3.90;2.20;;;25.20;90.00;;;;;;5067590;28;20419;-81
2022/08/30 10:51:57;;;;;;;5.20;2.42;;;25.20;90.80;;;;;;5054263;28;20037;-82
2022/08/30 10:54:35;;;;;;;3.47;2.10;;;25.40;90.40;;;;;;5053810;28;20059;-81
2022/08/30 10:57:00;;;;;;;8.07;2.00;;;25.40;90.30;;;;;;5067535;28;20029;-82
2022/08/30 10:59:27;;;;;;;3.22;1.83;;;25.60;89.80;;;;;;5074075;28;20047;-81
2022/08/30 11:02:05;;;;;;;5.18;1.65;;;25.70;90.20;;;;;;5058804;28;20438;-78
2022/08/30 11:04:54;;;;;;;3.47;1.80;;;25.50;89.00;;;;;;5072013;28;20027;-80
2022/08/30 11:07:39;;;;;;;2.72;1.90;;;25.40;88.50;;;;;;5052435;28;20031;-81
2022/08/30 11:10:13;;;;;;;5.75;1.80;;;25.50;89.30;;;;;;5072521;28;20530;-82
2022/08/30 11:12:57;;;;;;;6.40;2.10;;;25.70;90.20;;;;;;5086955;28;20016;-80
2022/08/30 11:15:25;;;;;;;2.53;1.65;;;26.00;88.80;;;;;;5089348;28;20024;-84
2022/08/30 11:17:59;;;;;;;4.47;1.40;;;26.20;85.40;;;;;;5084851;28;20062;-84
2022/08/30 11:20:42;;;;;;;3.25;1.25;;;26.30;86.20;;;;;;5064702;28;20038;-83
2022/08/30 11:23:29;;;;;;;4.57;1.65;;;26.40;85.00;;;;;;5067226;28;20030;-82
2022/08/30 11:25:59;;;;;;;4.00;1.80;;;26.50;85.10;;;;;;5066370;28;20083;-81
2022/08/30 11:28:33;;;;;;;3.38;1.40;;;26.80;84.30;;;;;;5066230;28;20052;-82
2022/08/30 11:31:10;;;;;;;7.78;1.65;;;27.10;84.60;;;;;;5066952;28;20796;-83
2022/08/30 11:33:46;;;;;;;3.10;1.50;;;27.20;82.00;;;;;;5066299;28;20032;-81
2022/08/30 11:36:32;;;;;;;2.58;1.52;;;27.10;83.10;;;;;;5062195;28;20369;-82
2022/08/30 11:39:05;;;;;;;3.28;1.65;;;27.00;82.20;;;;;;5063550;28;20048;-82
2022/08/30 11:41:37;;;;;;;3.47;1.55;;;26.90;82.10;;;;;;5063224;28;20028;-84
2022/08/30 11:44:24;;;;;;;;;;;26.80;81.30;;;;;;5067025;28;20562;-83
2022/08/30 11:46:53;;;;;;;6.13;1.83;;;26.50;84.50;;;;;;5066357;28;19914;-83
2022/08/30 11:49:19;;;;;;;4.03;1.90;;;26.00;86.70;;;;;;5060483;28;20025;-83
2022/08/30 11:52:06;;;;;;;1.98;1.52;;;25.70;86.80;;;;;;5064509;28;20025;-83
2022/08/30 11:55:06;;;;;;;3.47;1.80;;;25.60;87.80;;;;;;5066501;28;20438;-85
2022/08/30 11:57:47;;;;;;;3.47;2.38;;;25.40;89.40;;;;;;5065246;28;20024;-80
2022/08/30 12:00:13;;;;;;;4.18;2.13;;;25.20;89.80;;;;;;5065648;28;20534;-81
2022/08/30 12:02:57;;;;;;;4.20;2.88;;;24.90;90.10;;;;;;5073454;28;20027;-84
2022/08/30 12:05:36;;;;;;;3.67;2.10;;;24.70;90.30;;;;;;5064213;28;20400;-83
2022/08/30 12:08:32;;;;;;;2.45;2.03;;;24.70;90.20;;;;;;5070578;28;20027;-81
2022/08/30 12:11:01;;;;;;;3.90;2.53;;;24.60;90.60;;;;;;5066188;28;20024;-80
2022/08/30 12:13:41;;;;;;;4.10;2.22;;;24.50;91.50;;;;;;5067735;28;20468;-82
2022/08/30 12:16:18;;;;;;;6.88;2.55;;;24.50;91.00;;;;;;5068837;28;20516;-80
2022/08/30 12:18:52;;;;;;;4.57;1.83;;;24.50;91.10;;;;;;5080803;28;20013;-81
2022/08/30 12:21:20;;;;;;;2.85;2.05;;;24.50;91.00;;;;;;5076642;28;20024;-82
2022/08/30 12:23:51;;;;;;;4.30;2.60;;;24.50;91.10;;;;;;5083917;28;20024;-82
2022/08/30 12:26:23;;;;;;;6.22;2.47;;;24.40;91.60;;;;;;5090226;28;20040;-79
2022/08/30 12:28:51;;;;;;;5.10;2.28;;;24.40;91.40;;;;;;5076057;28;20025;-81
2022/08/30 12:31:25;;;;;;;3.80;2.35;;;24.20;91.40;;;;;;5076280;28;20102;-82
2022/08/30 12:33:58;;;;;;;3.55;2.30;;;24.30;91.30;;;;;;5076706;28;20078;-81
2022/08/30 12:36:39;;;;;;;4.90;2.10;;;24.30;91.10;;;;;;5061727;28;20021;-81
2022/08/30 12:39:15;;;;;;;2.67;2.20;;;24.30;91.10;;;;;;5076069;28;20051;-81
2022/08/30 12:41:42;;;;;;;2.90;2.08;;;24.10;91.20;;;;;;5066067;28;20469;-82
2022/08/30 12:44:14;;;;;;;3.47;2.30;;;24.20;92.20;;;;;;5073181;28;20465;-82
2022/08/30 12:46:41;;;;;;;2.92;2.00;;;24.10;91.80;;;;;;5062452;28;20696;-80
2022/08/30 12:49:07;;;;;;;3.55;2.22;;;24.10;91.80;;;;;;5067278;28;20044;-82
2022/08/30 12:51:41;;;;;;;3.20;2.03;;;24.00;92.30;;;;;;5061542;28;20660;-81
2022/08/30 12:54:13;;;;;;;4.47;2.33;;;24.10;92.00;;;;;;5065421;28;20036;-81
2022/08/30 12:57:01;;;;;;;4.30;2.13;;;24.10;92.00;;;;;;5063246;28;20060;-80
2022/08/30 12:59:48;;;;;;;2.35;1.70;;;24.00;92.20;;;;;;5063615;28;20472;-81
2022/08/30 13:02:15;;;;;;;3.60;2.92;;;24.30;92.30;;;;;;5065216;28;20020;-84